Time;durP1;ratioP1;P1;durP2;ratioP2;P2;SDS_P1;SDS_P2;PMS_P1;PMS_P2;Temp;Humidity;BMP_temperature;BMP_pressure;BME280_temperature;BME280_humidity;BME280_pressure;Samples;Min_cycle;Max_cycle;Signal;HPM_P1;HPM_P2
2022/05/13 00:00:28;;;;;;;;;;;;;;;15.06;100.00;96237.22;1034910;28;19917;-68
2022/05/13 00:01:02;;;;;;;;;;;;;;;15.08;100.00;96239.56;1035213;28;19972;-69
2022/05/13 00:01:32;;;;;;;;;;;;;;;15.08;100.00;96237.69;1034642;28;19961;-68
2022/05/13 00:02:06;;;;;;;;;;;;;;;15.07;100.00;96238.78;1031315;28;19917;-69
2022/05/13 00:02:36;;;;;;;;;;;;;;;15.07;100.00;96232.72;1035094;28;20004;-69
2022/05/13 00:03:06;;;;;;;;;;;;;;;15.08;100.00;96240.34;1031513;28;20461;-69
2022/05/13 00:03:37;;;;;;;;;;;;;;;15.09;100.00;96241.16;1039007;28;19964;-68
2022/05/13 00:04:07;;;;;;;;;;;;;;;15.09;100.00;96241.16;1039071;28;19928;-72
2022/05/13 00:04:38;;;;;;;;;;;;;;;15.11;100.00;96243.50;1035118;28;20438;-68
2022/05/13 00:05:08;;;;;;;;;;;;;;;15.09;100.00;96243.81;1038525;28;19917;-69
2022/05/13 00:05:38;;;;;;;;;;;;;;;15.11;100.00;96243.50;1037435;28;19921;-68
2022/05/13 00:06:09;;;;;;;;;;;;;;;15.10;100.00;96245.38;1038859;28;19917;-68
2022/05/13 00:06:39;;;;;;;;;;;;;;;15.09;100.00;96243.81;1035010;28;20460;-69
2022/05/13 00:07:09;;;;;;;;;;;;;;;15.10;100.00;96248.00;1030811;28;20327;-68
2022/05/13 00:07:40;;;;;;;;;;;;;;;15.09;100.00;96246.44;1031049;28;20401;-69
2022/05/13 00:08:10;;;;;;;;;;;;;;;15.09;100.00;96241.94;1030684;28;19925;-69
2022/05/13 00:08:40;;;;;;;;;;;;;;;15.09;100.00;96241.16;1035132;28;19913;-69
2022/05/13 00:09:11;;;;;;;;;;;;;;;15.10;100.00;96237.44;1034971;28;20501;-69
2022/05/13 00:09:56;;;;;;;;;;;;;;;15.12;100.00;96243.22;1038546;28;19920;-68
2022/05/13 00:10:30;;;;;;;;;;;;;;;15.12;100.00;96245.88;1039042;28;20270;-69
2022/05/13 00:11:01;;;;;;;;;;;;;;;15.10;100.00;96237.44;1037384;28;20599;-69
2022/05/13 00:11:31;;;;;;;;;;;;;;;15.13;100.00;96244.03;1031665;28;19914;-68
2022/05/13 00:12:01;;;;;;;;;;;;;;;15.11;100.00;96239.00;1035145;28;19928;-68
2022/05/13 00:12:33;;;;;;;;;;;;;;;15.10;100.00;96237.44;1028485;28;19994;-69
2022/05/13 00:13:04;;;;;;;;;;;;;;;15.09;100.00;96241.16;1034859;28;19918;-69
2022/05/13 00:13:35;;;;;;;;;;;;;;;15.08;100.00;96237.69;1034336;28;19932;-68
2022/05/13 00:14:05;;;;;;;;;;;;;;;15.07;100.00;96238.78;1031456;28;19914;-68
2022/05/13 00:14:36;;;;;;;;;;;;;;;15.08;100.00;96245.63;1032257;28;19925;-69
2022/05/13 00:15:08;;;;;;;;;;;;;;;15.08;100.00;96245.63;1030955;28;19914;-69
2022/05/13 00:15:42;;;;;;;;;;;;;;;15.07;100.00;96232.72;1031371;28;19976;-70
2022/05/13 00:16:12;;;;;;;;;;;;;;;15.08;100.00;96242.22;1031573;28;19917;-69
2022/05/13 00:16:43;;;;;;;;;;;;;;;15.06;100.00;96237.22;1034946;28;20468;-71
2022/05/13 00:17:14;;;;;;;;;;;;;;;15.06;100.00;96236.44;1034845;28;19921;-69
2022/05/13 00:17:45;;;;;;;;;;;;;;;15.05;100.00;96240.13;1027700;28;19993;-69
2022/05/13 00:18:15;;;;;;;;;;;;;;;15.06;100.00;96244.34;1021350;28;19982;-68
2022/05/13 00:18:46;;;;;;;;;;;;;;;15.05;100.00;96246.19;1022857;28;20534;-68
2022/05/13 00:19:16;;;;;;;;;;;;;;;15.05;100.00;96240.91;1022925;28;19918;-69
2022/05/13 00:19:47;;;;;;;;;;;;;;;15.07;100.00;96232.72;1022401;28;20719;-68
2022/05/13 00:20:18;;;;;;;;;;;;;;;15.08;100.00;96244.84;1027073;28;19914;-69
2022/05/13 00:20:48;;;;;;;;;;;;;;;15.08;100.00;96234.28;1022762;29;20001;-68
2022/05/13 00:21:23;;;;;;;;;;;;;;;15.09;100.00;96233.22;1023290;28;19942;-69
2022/05/13 00:21:53;;;;;;;;;;;;;;;15.09;100.00;96235.88;1027530;28;19989;-69
2022/05/13 00:22:23;;;;;;;;;;;;;;;15.10;100.00;96234.78;1028576;28;20001;-68
2022/05/13 00:22:54;;;;;;;;;;;;;;;15.11;100.00;96238.22;1035005;28;20529;-69
2022/05/13 00:23:25;;;;;;;;;;;;;;;15.11;100.00;96236.38;1026671;28;19933;-69
2022/05/13 00:23:55;;;;;;;;;;;;;;;15.10;100.00;96234.78;1027028;28;20352;-69
2022/05/13 00:24:26;;;;;;;;;;;;;;;15.11;100.00;96227.66;1023152;28;19911;-67
2022/05/13 00:24:56;;;;;;;;;;;;;;;15.09;100.00;96227.94;1027108;28;19914;-70
2022/05/13 00:25:28;;;;;;;;;;;;;;;15.09;100.00;96236.66;1038846;28;19913;-71
2022/05/13 00:26:01;;;;;;;;;;;;;;;15.09;100.00;96230.59;1035356;28;19968;-69
2022/05/13 00:26:31;;;;;;;;;;;;;;;15.09;100.00;96231.38;1030530;28;20126;-68
2022/05/13 00:27:02;;;;;;;;;;;;;;;15.10;100.00;96232.16;1030852;28;19910;-69
2022/05/13 00:27:32;;;;;;;;;;;;;;;15.11;100.00;96231.06;1031238;28;19998;-69
2022/05/13 00:28:03;;;;;;;;;;;;;;;15.11;100.00;96231.06;1034961;28;20048;-71
2022/05/13 00:28:33;;;;;;;;;;;;;;;15.09;100.00;96225.31;1038982;28;19920;-68
2022/05/13 00:29:04;;;;;;;;;;;;;;;15.09;100.00;96228.72;1039028;28;19968;-69
2022/05/13 00:29:34;;;;;;;;;;;;;;;15.09;100.00;96220.00;1034230;28;20529;-68
2022/05/13 00:30:06;;;;;;;;;;;;;;;15.09;100.00;96222.66;1026744;28;20368;-69
2022/05/13 00:30:37;;;;;;;;;;;;;;;15.10;100.00;96221.56;1034230;28;19956;-68
2022/05/13 00:31:08;;;;;;;;;;;;;;;15.09;100.00;96218.16;1035275;28;19913;-68
2022/05/13 00:31:38;;;;;;;;;;;;;;;15.09;100.00;96220.78;1034794;28;20010;-69
2022/05/13 00:32:09;;;;;;;;;;;;;;;15.11;100.00;96222.38;1030721;28;19916;-68
2022/05/13 00:32:39;;;;;;;;;;;;;;;15.11;100.00;96227.66;1030988;28;19914;-69
2022/05/13 00:33:09;;;;;;;;;;;;;;;15.11;100.00;96228.44;1030888;28;20623;-69
2022/05/13 00:33:40;;;;;;;;;;;;;;;15.12;100.00;96218.66;1026793;28;19913;-68
2022/05/13 00:34:10;;;;;;;;;;;;;;;15.10;100.00;96218.94;1031095;28;19921;-69
2022/05/13 00:34:40;;;;;;;;;;;;;;;15.10;100.00;96226.88;1030306;28;19914;-69
2022/05/13 00:35:11;;;;;;;;;;;;;;;15.09;100.00;96220.00;1034894;28;20004;-68
2022/05/13 00:35:41;;;;;;;;;;;;;;;15.09;100.00;96230.59;1043008;28;20025;-69
2022/05/13 00:36:11;;;;;;;;;;;;;;;15.09;100.00;96231.38;1039039;28;19980;-70
2022/05/13 00:36:42;;;;;;;;;;;;;;;15.10;100.00;96229.50;1039282;28;19916;-69
2022/05/13 00:37:18;;;;;;;;;;;;;;;15.09;100.00;96225.31;1030753;28;20679;-67
2022/05/13 00:37:48;;;;;;;;;;;;;;;15.09;100.00;96230.59;1031892;28;19935;-67
2022/05/13 00:38:18;;;;;;;;;;;;;;;15.11;100.00;96232.94;1034832;28;19905;-70
2022/05/13 00:38:49;;;;;;;;;;;;;;;15.10;100.00;96232.16;1032094;28;19917;-68
2022/05/13 00:39:19;;;;;;;;;;;;;;;15.09;100.00;96227.94;1034837;28;19913;-69
2022/05/13 00:39:49;;;;;;;;;;;;;;;15.12;100.00;96232.66;1034194;28;19913;-69
2022/05/13 00:40:23;;;;;;;;;;;;;;;15.11;100.00;96231.06;1030861;28;19925;-70
2022/05/13 00:40:56;;;;;;;;;;;;;;;15.11;100.00;96228.44;1035850;28;19949;-69
2022/05/13 00:41:26;;;;;;;;;;;;;;;15.10;100.00;96232.16;1038780;28;19913;-69
2022/05/13 00:42:04;;;;;;;;;;;;;;;15.12;100.00;96232.66;1039162;28;19925;-69
2022/05/13 00:42:34;;;;;;;;;;;;;;;15.11;100.00;96235.59;1034833;28;20477;-69
2022/05/13 00:43:06;;;;;;;;;;;;;;;15.09;100.00;96234.00;1031809;28;19913;-69
2022/05/13 00:43:37;;;;;;;;;;;;;;;15.11;100.00;96235.59;1030814;28;19914;-69
2022/05/13 00:44:08;;;;;;;;;;;;;;;15.10;100.00;96234.78;1027017;28;19918;-70
2022/05/13 00:44:38;;;;;;;;;;;;;;;15.09;100.00;96236.66;1022678;28;20006;-69
2022/05/13 00:45:09;;;;;;;;;;;;;;;15.10;100.00;96232.16;1023128;28;19919;-68
2022/05/13 00:45:39;;;;;;;;;;;;;;;15.07;100.00;96228.22;1018693;29;19937;-69
2022/05/13 00:46:10;;;;;;;;;;;;;;;15.07;100.00;96222.13;1023172;28;19953;-69
2022/05/13 00:46:41;;;;;;;;;;;;;;;15.08;100.00;96223.69;1030761;28;19948;-70
2022/05/13 00:47:12;;;;;;;;;;;;;;;15.08;100.00;96224.50;1026752;28;20665;-69
2022/05/13 00:47:42;;;;;;;;;;;;;;;15.08;100.00;96223.69;1026784;28;19914;-69
2022/05/13 00:48:13;;;;;;;;;;;;;;;15.08;100.00;96221.06;1026598;28;19910;-70
2022/05/13 00:48:43;;;;;;;;;;;;;;;15.07;100.00;96222.13;1027108;28;19918;-69
2022/05/13 00:49:14;;;;;;;;;;;;;;;15.07;100.00;96219.50;1023768;28;19921;-69
2022/05/13 00:49:44;;;;;;;;;;;;;;;15.06;100.00;96220.56;1021974;28;20672;-69
2022/05/13 00:50:15;;;;;;;;;;;;;;;15.05;100.00;96225.03;1022735;29;20451;-69
2022/05/13 00:50:45;;;;;;;;;;;;;;;15.05;100.00;96225.03;1022574;29;20012;-69
2022/05/13 00:51:29;;;;;;;;;;;;;;;15.05;100.00;96221.63;1026528;28;19914;-69
2022/05/13 00:52:00;;;;;;;;;;;;;;;15.05;100.00;96224.25;1034718;28;20434;-69
2022/05/13 00:52:30;;;;;;;;;;;;;;;15.05;100.00;96217.13;1034387;28;19915;-69
2022/05/13 00:53:02;;;;;;;;;;;;;;;15.04;100.00;96222.69;1031074;28;19910;-69
2022/05/13 00:53:33;;;;;;;;;;;;;;;15.04;100.00;96220.03;1026410;28;19930;-69
2022/05/13 00:54:04;;;;;;;;;;;;;;;15.03;100.00;96227.19;1023589;28;20580;-69
2022/05/13 00:54:34;;;;;;;;;;;;;;;15.03;100.00;96221.13;1027573;28;19915;-68
2022/05/13 00:55:06;;;;;;;;;;;;;;;15.03;100.00;96215.84;1031285;28;20787;-68
2022/05/13 00:55:39;;;;;;;;;;;;;;;15.02;100.00;96222.16;1030923;28;19913;-68
2022/05/13 00:56:10;;;;;;;;;;;;;;;15.02;100.00;96224.81;1027024;28;19915;-69
2022/05/13 00:56:44;;;;;;;;;;;;;;;15.02;100.00;96222.97;1031435;28;20001;-71
2022/05/13 00:57:15;;;;;;;;;;;;;;;15.02;100.00;96216.88;1031819;28;19921;-69
2022/05/13 00:57:45;;;;;;;;;;;;;;;15.03;100.00;96216.63;1035088;28;19918;-69
2022/05/13 00:58:17;;;;;;;;;;;;;;;15.03;100.00;96216.63;1033811;28;19913;-70
2022/05/13 00:58:48;;;;;;;;;;;;;;;15.04;100.00;96222.69;1026777;28;20327;-69
2022/05/13 00:59:19;;;;;;;;;;;;;;;14.85;100.00;96204.09;1030682;28;19914;-71
2022/05/13 00:59:50;;;;;;;;;;;;;;;15.02;100.00;96230.09;1026439;28;20243;-68
2022/05/13 01:00:20;;;;;;;;;;;;;;;15.03;100.00;96229.84;1031066;28;19918;-70
2022/05/13 01:00:50;;;;;;;;;;;;;;;15.03;100.00;96232.47;1034661;28;19914;-69
2022/05/13 01:01:21;;;;;;;;;;;;;;;15.05;100.00;96232.97;1034552;28;20454;-69
2022/05/13 01:01:51;;;;;;;;;;;;;;;15.04;100.00;96235.91;1030823;28;20387;-69
2022/05/13 01:02:21;;;;;;;;;;;;;;;15.04;100.00;96235.91;1034578;28;19917;-68
2022/05/13 01:02:52;;;;;;;;;;;;;;;15.03;100.00;96237.75;1038877;28;19921;-69
2022/05/13 01:03:22;;;;;;;;;;;;;;;15.03;100.00;96236.97;1038663;28;19917;-69
2022/05/13 01:03:53;;;;;;;;;;;;;;;15.05;100.00;96237.47;1034829;28;20296;-69
2022/05/13 01:04:24;;;;;;;;;;;;;;;15.03;100.00;96232.47;1034642;28;20254;-69
2022/05/13 01:04:55;;;;;;;;;;;;;;;15.03;100.00;96237.75;1030693;28;19985;-69
2022/05/13 01:05:25;;;;;;;;;;;;;;;15.04;100.00;96230.63;1030765;28;19910;-69
2022/05/13 01:05:57;;;;;;;;;;;;;;;15.03;100.00;96234.34;1030895;28;19960;-69
2022/05/13 01:06:28;;;;;;;;;;;;;;;15.03;100.00;96231.69;1035229;28;19995;-69
2022/05/13 01:06:59;;;;;;;;;;;;;;;15.03;100.00;96240.41;1035129;28;20346;-69
2022/05/13 01:07:32;;;;;;;;;;;;;;;15.02;100.00;96236.19;1038774;28;19913;-69
2022/05/13 01:08:06;;;;;;;;;;;;;;;15.04;100.00;96236.69;1030819;28;19917;-70
2022/05/13 01:08:36;;;;;;;;;;;;;;;15.04;100.00;96235.91;1027541;28;19914;-69
2022/05/13 01:09:06;;;;;;;;;;;;;;;15.04;100.00;96234.03;1026785;28;19910;-68
2022/05/13 01:09:38;;;;;;;;;;;;;;;15.05;100.00;96238.25;1030414;28;19925;-69
2022/05/13 01:10:12;;;;;;;;;;;;;;;15.05;100.00;96226.91;1031409;28;20673;-69
2022/05/13 01:10:43;;;;;;;;;;;;;;;15.05;100.00;96240.13;1031944;28;19980;-69
2022/05/13 01:11:14;;;;;;;;;;;;;;;15.05;100.00;96234.81;1033937;28;19917;-69
2022/05/13 01:11:46;;;;;;;;;;;;;;;15.03;100.00;96231.69;1031606;28;20310;-71
2022/05/13 01:12:20;;;;;;;;;;;;;;;15.02;100.00;96222.16;1030641;28;19920;-70
2022/05/13 01:12:52;;;;;;;;;;;;;;;15.02;100.00;96230.09;1030559;28;19914;-69
2022/05/13 01:13:23;;;;;;;;;;;;;;;15.01;100.00;96229.31;1029204;28;19911;-69
2022/05/13 01:13:56;;;;;;;;;;;;;;;15.01;100.00;96233.81;1035587;28;20796;-69
2022/05/13 01:14:35;;;;;;;;;;;;;;;14.99;100.00;96228.81;1034685;28;20758;-71
2022/05/13 01:15:07;;;;;;;;;;;;;;;15.00;100.00;96232.25;1026341;28;19957;-69
2022/05/13 01:15:38;;;;;;;;;;;;;;;14.98;100.00;96226.44;1020422;29;19915;-70
2022/05/13 01:16:08;;;;;;;;;;;;;;;14.98;100.00;96224.59;1024262;28;19929;-70
2022/05/13 01:18:26;;;;;;;;;;;;;;;14.97;100.00;96227.50;1038063;28;19978;-71
2022/05/13 01:18:56;;;;;;;;;;;;;;;14.99;100.00;96228.00;1038686;28;19940;-69
2022/05/13 01:19:26;;;;;;;;;;;;;;;14.98;100.00;96234.38;1034761;28;19960;-68
2022/05/13 01:19:57;;;;;;;;;;;;;;;14.97;100.00;96230.16;1033858;28;19921;-69
2022/05/13 01:20:28;;;;;;;;;;;;;;;14.94;100.00;96228.06;1038635;28;19913;-71
2022/05/13 01:20:58;;;;;;;;;;;;;;;14.92;100.00;96230.97;1034715;28;20464;-68
2022/05/13 01:21:32;;;;;;;;;;;;;;;14.94;100.00;96230.72;1030660;28;19918;-68
2022/05/13 01:22:13;;;;;;;;;;;;;;;14.98;100.00;96229.09;1030523;28;19945;-68
2022/05/13 01:22:45;;;;;;;;;;;;;;;15.00;100.00;96226.97;1032598;28;20418;-69
2022/05/13 01:23:19;;;;;;;;;;;;;;;14.98;100.00;96229.09;1032765;28;19949;-68
2022/05/13 01:23:50;;;;;;;;;;;;;;;14.97;100.00;96227.50;1032433;28;19914;-70
2022/05/13 01:24:21;;;;;;;;;;;;;;;14.95;100.00;96222.50;1026622;28;20008;-69
2022/05/13 01:24:51;;;;;;;;;;;;;;;14.96;100.00;96226.72;1026417;28;19910;-70
2022/05/13 01:25:24;;;;;;;;;;;;;;;14.94;100.00;96228.06;1026695;28;19918;-69
2022/05/13 01:25:57;;;;;;;;;;;;;;;14.94;100.00;96223.56;1027053;28;19922;-69
2022/05/13 01:26:30;;;;;;;;;;;;;;;14.95;100.00;96221.72;1030581;28;19914;-68
2022/05/13 01:27:00;;;;;;;;;;;;;;;14.94;100.00;96223.56;1029880;28;20817;-70
2022/05/13 01:27:31;;;;;;;;;;;;;;;14.96;100.00;96221.44;1027926;28;19926;-69
2022/05/13 01:28:05;;;;;;;;;;;;;;;14.96;100.00;96221.44;1030489;28;19918;-69
2022/05/13 01:28:43;;;;;;;;;;;;;;;14.94;100.00;96218.28;1023079;28;19914;-69
2022/05/13 01:29:13;;;;;;;;;;;;;;;14.94;100.00;96220.13;1024057;28;19914;-71
2022/05/13 01:29:43;;;;;;;;;;;;;;;14.94;100.00;96222.78;1027623;28;19921;-70
2022/05/13 01:30:16;;;;;;;;;;;;;;;14.92;100.00;96222.25;1027720;28;20339;-69
2022/05/13 01:30:56;;;;;;;;;;;;;;;14.92;100.00;96222.25;1030896;28;20426;-69
2022/05/13 01:31:29;;;;;;;;;;;;;;;14.90;100.00;96213.84;1030613;28;20005;-69
2022/05/13 01:32:00;;;;;;;;;;;;;;;14.88;100.00;96215.97;1032477;28;20517;-70
2022/05/13 01:32:30;;;;;;;;;;;;;;;14.87;100.00;96215.19;1036624;28;19918;-70
2022/05/13 01:33:01;;;;;;;;;;;;;;;14.87;100.00;96214.41;1038865;28;19914;-69
2022/05/13 01:33:31;;;;;;;;;;;;;;;14.86;100.00;96216.25;1038895;28;19982;-69
2022/05/13 01:34:08;;;;;;;;;;;;;;;14.86;100.00;96216.25;1034670;28;19910;-69
2022/05/13 01:34:39;;;;;;;;;;;;;;;14.85;100.00;96212.81;1034610;28;20016;-69
2022/05/13 01:35:09;;;;;;;;;;;;;;;14.82;100.00;96208.09;1034679;28;19918;-69
2022/05/13 01:35:42;;;;;;;;;;;;;;;14.83;100.00;96212.31;1030284;28;20343;-69
2022/05/13 01:36:13;;;;;;;;;;;;;;;14.83;100.00;96214.16;1027040;28;19956;-70
2022/05/13 01:36:43;;;;;;;;;;;;;;;14.83;100.00;96212.31;1030654;28;19925;-70
2022/05/13 01:37:13;;;;;;;;;;;;;;;14.82;100.00;96209.94;1027247;28;19925;-71
2022/05/13 01:37:47;;;;;;;;;;;;;;;14.81;100.00;96211.78;1030448;28;20500;-69
2022/05/13 01:38:18;;;;;;;;;;;;;;;14.82;100.00;96209.94;1035255;28;19964;-69
2022/05/13 01:38:48;;;;;;;;;;;;;;;14.80;100.00;96210.22;1034868;28;19949;-68
2022/05/13 01:39:19;;;;;;;;;;;;;;;14.81;100.00;96213.63;1035448;28;19917;-70
2022/05/13 01:39:49;;;;;;;;;;;;;;;14.81;100.00;96211.78;1037884;28;19921;-68
2022/05/13 01:40:19;;;;;;;;;;;;;;;14.81;100.00;96208.34;1038884;28;19947;-69
2022/05/13 01:40:50;;;;;;;;;;;;;;;14.80;100.00;96212.84;1034499;28;19917;-69
2022/05/13 01:41:20;;;;;;;;;;;;;;;14.80;100.00;96214.72;1034808;28;19920;-69
2022/05/13 01:41:50;;;;;;;;;;;;;;;14.78;100.00;96212.34;1030429;28;19941;-68
2022/05/13 01:42:20;;;;;;;;;;;;;;;14.76;100.00;96214.47;1030619;28;20343;-69
2022/05/13 01:42:51;;;;;;;;;;;;;;;14.77;100.00;96208.13;1030595;28;19918;-69
2022/05/13 01:43:21;;;;;;;;;;;;;;;14.78;100.00;96203.63;1034805;28;19928;-69
2022/05/13 01:43:54;;;;;;;;;;;;;;;14.77;100.00;96212.63;1037637;28;19917;-70
2022/05/13 01:44:24;;;;;;;;;;;;;;;14.75;100.00;96204.97;1030769;28;19941;-69
2022/05/13 01:44:55;;;;;;;;;;;;;;;14.75;100.00;96204.97;1030140;28;20465;-70
2022/05/13 01:45:25;;;;;;;;;;;;;;;14.73;100.00;96201.81;1034681;28;19920;-69
2022/05/13 01:45:56;;;;;;;;;;;;;;;14.74;100.00;96202.59;1030286;28;20004;-68
2022/05/13 01:46:27;;;;;;;;;;;;;;;14.55;100.00;96182.16;1034899;28;19913;-70
2022/05/13 01:46:57;;;;;;;;;;;;;;;14.74;100.00;96207.88;1038390;28;19913;-69
2022/05/13 01:47:28;;;;;;;;;;;;;;;14.72;100.00;96205.53;1034611;28;19913;-70
2022/05/13 01:47:58;;;;;;;;;;;;;;;14.74;100.00;96206.03;1038971;28;20473;-70
2022/05/13 01:48:29;;;;;;;;;;;;;;;14.74;100.00;96199.97;1039705;28;19925;-67
2022/05/13 01:48:59;;;;;;;;;;;;;;;14.71;100.00;96206.59;1030251;28;19914;-69
2022/05/13 01:49:29;;;;;;;;;;;;;;;14.52;100.00;96173.97;1031104;28;19917;-68
2022/05/13 01:50:00;;;;;;;;;;;;;;;14.69;100.00;96200.81;1031154;28;19979;-68
2022/05/13 01:50:30;;;;;;;;;;;;;;;14.67;100.00;96197.66;1029571;28;19926;-67
2022/05/13 01:51:01;;;;;;;;;;;;;;;14.66;100.00;96198.72;1022565;28;19919;-68
2022/05/13 01:51:31;;;;;;;;;;;;;;;14.66;100.00;96204.00;1029522;28;20033;-70
2022/05/13 01:52:02;;;;;;;;;;;;;;;14.66;100.00;96195.28;1029803;28;19917;-67
2022/05/13 01:52:32;;;;;;;;;;;;;;;14.66;100.00;96188.16;1032965;28;19921;-68
2022/05/13 01:53:04;;;;;;;;;;;;;;;14.67;100.00;96200.28;1037971;28;19917;-69
2022/05/13 01:53:34;;;;;;;;;;;;;;;14.66;100.00;96196.06;1037702;28;20502;-68
2022/05/13 01:54:05;;;;;;;;;;;;;;;14.66;100.00;96192.66;1029914;28;20004;-70
2022/05/13 01:54:35;;;;;;;;;;;;;;;14.64;100.00;96192.91;1033374;28;19922;-69
2022/05/13 01:55:05;;;;;;;;;;;;;;;14.67;100.00;96191.56;1029425;28;20610;-64
2022/05/13 01:55:36;;;;;;;;;;;;;;;14.64;100.00;96195.56;1027453;28;19930;-69
2022/05/13 01:56:06;;;;;;;;;;;;;;;14.64;100.00;96195.56;1034109;28;20019;-70
2022/05/13 01:56:36;;;;;;;;;;;;;;;14.64;100.00;96192.91;1035144;28;20008;-69
2022/05/13 01:57:07;;;;;;;;;;;;;;;14.62;100.00;96195.06;1039341;28;20410;-67
2022/05/13 01:57:37;;;;;;;;;;;;;;;14.63;100.00;96190.56;1032927;28;19921;-69
2022/05/13 01:58:07;;;;;;;;;;;;;;;14.61;100.00;96196.09;1033504;28;19925;-69
2022/05/13 01:58:38;;;;;;;;;;;;;;;14.58;100.00;96186.88;1034515;28;19917;-70
2022/05/13 01:59:09;;;;;;;;;;;;;;;14.60;100.00;96189.25;1031276;28;19922;-68
2022/05/13 01:59:40;;;;;;;;;;;;;;;14.58;100.00;96186.88;1033816;28;19924;-68
2022/05/13 02:00:13;;;;;;;;;;;;;;;14.57;100.00;96189.81;1031354;28;19910;-69
2022/05/13 02:00:43;;;;;;;;;;;;;;;14.55;100.00;96184.00;1031215;28;20410;-69
2022/05/13 02:01:13;;;;;;;;;;;;;;;14.56;100.00;96194.31;1027285;28;20331;-69
2022/05/13 02:01:44;;;;;;;;;;;;;;;14.55;100.00;96184.81;1022772;28;20427;-68
2022/05/13 02:02:14;;;;;;;;;;;;;;;14.55;100.00;96195.38;1027258;28;19937;-68
2022/05/13 02:03:45;;;;;;;;;;;;;;;14.53;100.00;96188.78;1038211;28;19946;-69
2022/05/13 02:04:16;;;;;;;;;;;;;;;14.52;100.00;96190.66;1035547;28;20403;-68
2022/05/13 02:04:46;;;;;;;;;;;;;;;14.50;100.00;96184.03;1038976;28;19914;-68
2022/05/13 02:05:17;;;;;;;;;;;;;;;14.51;100.00;96182.97;1039533;28;19917;-70
2022/05/13 02:05:47;;;;;;;;;;;;;;;14.50;100.00;96184.03;1029622;28;19921;-70
2022/05/13 02:06:18;;;;;;;;;;;;;;;14.49;100.00;96187.75;1033763;28;19925;-69
2022/05/13 02:06:49;;;;;;;;;;;;;;;14.48;100.00;96184.28;1026927;28;20435;-68
2022/05/13 02:07:19;;;;;;;;;;;;;;;14.48;100.00;96183.50;1023128;28;19914;-67
2022/05/13 02:07:49;;;;;;;;;;;;;;;14.45;100.00;96176.91;1026275;28;20000;-67
2022/05/13 02:08:20;;;;;;;;;;;;;;;14.46;100.00;96180.38;1025174;28;20667;-67
2022/05/13 02:08:51;;;;;;;;;;;;;;;14.49;100.00;96179.81;1037382;28;19920;-68
2022/05/13 02:09:21;;;;;;;;;;;;;;;14.45;100.00;96176.91;1036049;28;20000;-68
2022/05/13 02:09:52;;;;;;;;;;;;;;;14.46;100.00;96167.16;1038335;28;19917;-69
2022/05/13 02:10:22;;;;;;;;;;;;;;;14.44;100.00;96177.97;1038629;28;20309;-68
2022/05/13 02:10:52;;;;;;;;;;;;;;;14.42;100.00;96174.84;1036154;28;19926;-68
2022/05/13 02:11:24;;;;;;;;;;;;;;;14.42;100.00;96174.03;1035717;28;19944;-70
2022/05/13 02:11:54;;;;;;;;;;;;;;;14.42;100.00;96174.03;1036408;28;19959;-69
2022/05/13 02:12:24;;;;;;;;;;;;;;;14.41;100.00;96167.19;1033339;28;19925;-70
2022/05/13 02:12:55;;;;;;;;;;;;;;;14.39;100.00;96170.91;1032049;28;19925;-68
2022/05/13 02:13:25;;;;;;;;;;;;;;;14.38;100.00;96169.34;1030182;28;20359;-68
2022/05/13 02:13:56;;;;;;;;;;;;;;;14.37;100.00;96166.94;1029164;28;20388;-68
2022/05/13 02:14:26;;;;;;;;;;;;;;;14.38;100.00;96169.34;1031046;28;20778;-67
2022/05/13 02:14:56;;;;;;;;;;;;;;;14.37;100.00;96167.75;1031806;28;19928;-68
2022/05/13 02:15:26;;;;;;;;;;;;;;;14.37;100.00;96166.94;1030014;28;19985;-68
2022/05/13 02:15:57;;;;;;;;;;;;;;;14.36;100.00;96165.38;1028344;28;19968;-69
2022/05/13 02:16:27;;;;;;;;;;;;;;;14.34;100.00;96163.00;1031918;28;20331;-69
2022/05/13 02:16:57;;;;;;;;;;;;;;;14.33;100.00;96160.66;1031872;28;19922;-68
2022/05/13 02:17:28;;;;;;;;;;;;;;;14.33;100.00;96168.56;1030631;28;19922;-68
2022/05/13 02:17:58;;;;;;;;;;;;;;;14.32;100.00;96162.50;1027968;28;19958;-68
2022/05/13 02:18:28;;;;;;;;;;;;;;;14.31;100.00;96158.28;1035897;28;20500;-68
2022/05/13 02:18:59;;;;;;;;;;;;;;;14.30;100.00;96155.91;1031873;28;19918;-69
2022/05/13 02:19:29;;;;;;;;;;;;;;;14.29;100.00;96155.13;1032420;28;19925;-70
2022/05/13 02:19:59;;;;;;;;;;;;;;;14.30;100.00;96155.91;1032279;28;20358;-69
2022/05/13 02:20:29;;;;;;;;;;;;;;;14.28;100.00;96153.53;1031708;28;19957;-67
2022/05/13 02:21:00;;;;;;;;;;;;;;;14.29;100.00;96154.34;1033439;28;19913;-68
2022/05/13 02:21:30;;;;;;;;;;;;;;;14.28;100.00;96156.19;1029627;28;20419;-68
2022/05/13 02:22:00;;;;;;;;;;;;;;;14.27;100.00;96159.09;1031329;28;20399;-68
2022/05/13 02:22:31;;;;;;;;;;;;;;;14.25;100.00;96159.41;1031997;28;19917;-69
2022/05/13 02:23:02;;;;;;;;;;;;;;;14.26;100.00;96154.91;1043861;28;19917;-70
2022/05/13 02:23:33;;;;;;;;;;;;;;;14.26;100.00;96160.19;1037862;28;19927;-69
2022/05/13 02:24:04;;;;;;;;;;;;;;;14.25;100.00;96158.59;1039994;28;20466;-69
2022/05/13 02:24:34;;;;;;;;;;;;;;;14.24;100.00;96152.53;1039441;28;19959;-67
2022/05/13 02:25:07;;;;;;;;;;;;;;;14.24;100.00;96149.09;1040220;28;20430;-69
2022/05/13 02:25:38;;;;;;;;;;;;;;;14.23;100.00;96150.97;1040511;28;19919;-68
2022/05/13 02:26:09;;;;;;;;;;;;;;;14.23;100.00;96150.97;1039853;28;19921;-69
2022/05/13 02:26:39;;;;;;;;;;;;;;;14.23;100.00;96150.97;1035338;28;19913;-68
2022/05/13 02:27:10;;;;;;;;;;;;;;;14.24;100.00;96149.88;1032841;28;19918;-68
2022/05/13 02:27:40;;;;;;;;;;;;;;;14.23;100.00;96150.97;1034197;28;19921;-69
2022/05/13 02:28:10;;;;;;;;;;;;;;;14.24;100.00;96152.53;1031837;28;19961;-71
2022/05/13 02:28:41;;;;;;;;;;;;;;;14.25;100.00;96151.47;1036124;28;19918;-69
2022/05/13 02:29:11;;;;;;;;;;;;;;;14.24;100.00;96152.53;1033411;28;19918;-69
2022/05/13 02:29:41;;;;;;;;;;;;;;;14.24;100.00;96152.53;1034882;28;20273;-69
2022/05/13 02:30:12;;;;;;;;;;;;;;;14.23;100.00;96152.81;1044421;28;19967;-68
2022/05/13 02:30:42;;;;;;;;;;;;;;;14.24;100.00;96157.00;1043729;28;19974;-69
2022/05/13 02:31:12;;;;;;;;;;;;;;;14.21;100.00;96149.66;1040048;28;19928;-69
2022/05/13 02:31:43;;;;;;;;;;;;;;;14.22;100.00;96154.66;1039900;28;19923;-69
2022/05/13 02:32:13;;;;;;;;;;;;;;;14.22;100.00;96146.75;1032894;28;19917;-68
2022/05/13 02:32:44;;;;;;;;;;;;;;;14.22;100.00;96153.84;1032226;28;19918;-68
2022/05/13 02:33:14;;;;;;;;;;;;;;;14.20;100.00;96148.88;1032138;28;19917;-69
2022/05/13 02:33:44;;;;;;;;;;;;;;;14.20;100.00;96154.13;1031842;28;20000;-69
2022/05/13 02:34:15;;;;;;;;;;;;;;;14.20;100.00;96148.88;1027895;28;19918;-68
2022/05/13 02:34:45;;;;;;;;;;;;;;;14.21;100.00;96150.44;1024004;28;19922;-68
2022/05/13 02:35:15;;;;;;;;;;;;;;;14.22;100.00;96149.38;1020152;29;19919;-70
2022/05/13 02:35:46;;;;;;;;;;;;;;;14.21;100.00;96139.88;1030247;28;19973;-69
2022/05/13 02:36:16;;;;;;;;;;;;;;;14.21;100.00;96153.06;1031990;28;19989;-68
2022/05/13 02:36:47;;;;;;;;;;;;;;;14.21;100.00;96147.78;1036172;28;19921;-68
2022/05/13 02:37:17;;;;;;;;;;;;;;;14.20;100.00;96145.44;1034449;28;19921;-70
2022/05/13 02:37:49;;;;;;;;;;;;;;;14.20;100.00;96146.22;1035702;28;19957;-68
2022/05/13 02:38:19;;;;;;;;;;;;;;;14.19;100.00;96144.66;1035946;28;20367;-68
2022/05/13 02:38:51;;;;;;;;;;;;;;;14.20;100.00;96146.22;1034695;28;19921;-69
2022/05/13 02:39:21;;;;;;;;;;;;;;;14.19;100.00;96144.66;1024813;28;19919;-70
2022/05/13 02:39:52;;;;;;;;;;;;;;;14.19;100.00;96135.94;1027424;28;20523;-69
2022/05/13 02:41:11;;;;;;;;;;;;;;;14.19;100.00;96143.88;1024876;28;19961;-71
2022/05/13 02:41:13;;;;;;;;;;;;;;;14.22;100.00;96146.75;1033430;28;19988;-69
2022/05/13 02:41:44;;;;;;;;;;;;;;;14.22;100.00;96138.00;1032005;28;19965;-69
2022/05/13 02:42:14;;;;;;;;;;;;;;;14.22;100.00;96144.09;1034541;28;20536;-69
2022/05/13 02:42:45;;;;;;;;;;;;;;;14.22;100.00;96141.47;1027937;28;19918;-69